Time;durP1;ratioP1;P1;durP2;ratioP2;P2;SDS_P1;SDS_P2;PMS_P1;PMS_P2;Temp;Humidity;BMP_temperature;BMP_pressure;BME280_temperature;BME280_humidity;BME280_pressure;Samples;Min_cycle;Max_cycle;Signal;HPM_P1;HPM_P2
2023/05/04 00:01:30;;;;;;;;;;;;;;;-140.72;100.00;52668.84;5089240;28;19966;-70
2023/05/04 00:03:55;;;;;;;;;;;;;;;-140.72;100.00;52674.94;5082229;28;19978;-70
2023/05/04 00:06:20;;;;;;;;;;;;;;;-140.72;100.00;52695.25;5079431;28;19916;-71
2023/05/04 00:08:45;;;;;;;;;;;;;;;-140.72;100.00;52691.19;5085678;28;20371;-70
2023/05/04 00:11:11;;;;;;;;;;;;;;;-140.72;100.00;52654.66;5090726;28;19998;-70
2023/05/04 00:13:36;;;;;;;;;;;;;;;-140.72;100.00;52660.75;5075721;28;19944;-71
2023/05/04 00:16:01;;;;;;;;;;;;;;;-140.72;100.00;52650.59;5084097;28;19916;-71
2023/05/04 00:18:28;;;;;;;;;;;;;;;-140.72;100.00;52691.19;5085639;28;19917;-71
2023/05/04 00:20:53;;;;;;;;;;;;;;;-140.72;100.00;52650.59;5086586;28;20390;-71
2023/05/04 00:23:18;;;;;;;;;;;;;;;-140.72;100.00;52681.03;5078740;28;19923;-71
2023/05/04 00:25:43;;;;;;;;;;;;;;;-140.72;100.00;52679.00;5082540;28;19916;-71
2023/05/04 00:28:08;;;;;;;;;;;;;;;-140.72;100.00;52652.63;5091920;28;19916;-71
2023/05/04 00:30:34;;;;;;;;;;;;;;;-140.72;100.00;52666.84;5094605;28;19920;-71
2023/05/04 00:32:59;;;;;;;;;;;;;;;-140.72;100.00;52674.94;5092491;28;19963;-71
2023/05/04 00:35:24;;;;;;;;;;;;;;;-140.72;100.00;52709.44;5102613;28;20014;-70
2023/05/04 00:37:50;;;;;;;;;;;;;;;-140.72;100.00;52666.84;5093976;28;19916;-70
2023/05/04 00:40:15;;;;;;;;;;;;;;;-140.72;100.00;52683.06;5094032;28;19927;-71
2023/05/04 00:42:40;;;;;;;;;;;;;;;-140.72;100.00;52699.31;5089059;28;19917;-70
2023/05/04 00:45:06;;;;;;;;;;;;;;;-140.72;100.00;52654.66;5075926;28;19916;-71
2023/05/04 00:47:31;;;;;;;;;;;;;;;-140.72;100.00;52658.72;5094942;28;19916;-70
2023/05/04 00:49:56;;;;;;;;;;;;;;;-140.72;100.00;52674.94;5081455;28;19923;-71
2023/05/04 00:52:22;;;;;;;;;;;;;;;-140.72;100.00;52723.66;5080579;28;19917;-70
2023/05/04 00:54:48;;;;;;;;;;;;;;;-140.72;100.00;52656.69;5086891;28;20393;-70
2023/05/04 00:57:14;;;;;;;;;;;;;;;-140.72;100.00;52676.97;5074427;28;19921;-70
2023/05/04 00:59:39;;;;;;;;;;;;;;;-140.72;100.00;52727.72;5078771;28;19998;-71
2023/05/04 01:02:05;;;;;;;;;;;;;;;-140.72;100.00;52662.78;5078408;28;20005;-70
2023/05/04 01:04:30;;;;;;;;;;;;;;;-140.72;100.00;52685.09;5086361;28;19961;-70
2023/05/04 01:07:13;;;;;;;;;;;;;;;-140.72;100.00;52654.66;5093224;28;19917;-70
2023/05/04 01:09:46;;;;;;;;;;;;;;;-140.72;100.00;52689.16;5102643;28;20200;-70
2023/05/04 01:12:16;;;;;;;;;;;;;;;-140.72;100.00;52717.56;5074258;28;19916;-70
2023/05/04 01:14:42;;;;;;;;;;;;;;;-140.72;100.00;52695.25;5076538;28;19935;-70
2023/05/04 01:17:07;;;;;;;;;;;;;;;-140.72;100.00;52733.78;5090343;28;19916;-70
2023/05/04 01:19:33;;;;;;;;;;;;;;;-140.72;100.00;52687.13;5073732;28;20007;-70
2023/05/04 01:22:01;;;;;;;;;;;;;;;-140.72;100.00;52703.34;5086967;28;19966;-71
2023/05/04 01:24:27;;;;;;;;;;;;;;;-140.72;100.00;52691.19;5092759;28;20306;-71
2023/05/04 01:26:55;;;;;;;;;;;;;;;-140.72;100.00;52699.31;5096629;28;19917;-70
2023/05/04 01:29:42;;;;;;;;;;;;;;;-140.72;100.00;52697.28;5080386;28;20001;-71
2023/05/04 01:32:09;;;;;;;;;;;;;;;-140.72;100.00;52689.16;5074475;28;20360;-71
2023/05/04 01:34:36;;;;;;;;;;;;;;;-140.72;100.00;52687.13;5088278;28;19916;-71
2023/05/04 01:37:02;;;;;;;;;;;;;;;-140.72;100.00;52707.41;5083831;28;19917;-71
2023/05/04 01:39:28;;;;;;;;;;;;;;;-140.72;100.00;52691.19;5105597;28;19954;-71
2023/05/04 01:41:54;;;;;;;;;;;;;;;-140.72;100.00;52735.81;5089250;28;19916;-71
2023/05/04 01:44:20;;;;;;;;;;;;;;;-140.72;100.00;52723.66;5092428;28;19920;-71
2023/05/04 01:46:45;;;;;;;;;;;;;;;-140.72;100.00;52713.50;5079196;28;19920;-71
2023/05/04 01:49:11;;;;;;;;;;;;;;;-140.72;100.00;52687.13;5086623;28;19923;-70
2023/05/04 01:51:36;;;;;;;;;;;;;;;-140.72;100.00;52711.47;5085125;28;19924;-71
2023/05/04 01:54:01;;;;;;;;;;;;;;;-140.72;100.00;52729.75;5077741;28;19916;-71
2023/05/04 01:56:26;;;;;;;;;;;;;;;-140.72;100.00;52650.59;5078577;28;19932;-71
2023/05/04 01:59:11;;;;;;;;;;;;;;;-140.72;100.00;52679.00;5086980;28;19920;-71
2023/05/04 02:01:36;;;;;;;;;;;;;;;-140.72;100.00;52687.13;5087807;28;20298;-71
2023/05/04 02:04:02;;;;;;;;;;;;;;;-140.72;100.00;52741.91;5083109;28;19920;-71
2023/05/04 02:06:28;;;;;;;;;;;;;;;-140.72;100.00;52711.47;5089394;28;20392;-71
2023/05/04 02:08:54;;;;;;;;;;;;;;;-140.72;100.00;52711.47;5081477;28;19922;-71
2023/05/04 02:11:19;;;;;;;;;;;;;;;-140.72;100.00;52709.44;5085301;28;19916;-71
2023/05/04 02:13:45;;;;;;;;;;;;;;;-140.72;100.00;52717.56;5082989;28;19921;-71
2023/05/04 02:16:10;;;;;;;;;;;;;;;-140.72;100.00;52723.66;5085649;28;20286;-71
2023/05/04 02:18:35;;;;;;;;;;;;;;;-140.72;100.00;52709.44;5085961;28;19998;-71
2023/05/04 02:21:01;;;;;;;;;;;;;;;-140.72;100.00;52705.38;5082014;28;19920;-71
2023/05/04 02:23:26;;;;;;;;;;;;;;;-140.72;100.00;52699.31;5087501;28;19916;-71
2023/05/04 02:25:53;;;;;;;;;;;;;;;-140.72;100.00;52719.59;5081223;28;19985;-71
2023/05/04 02:28:18;;;;;;;;;;;;;;;-140.72;100.00;52713.50;5082568;28;19917;-70
2023/05/04 02:30:43;;;;;;;;;;;;;;;-140.72;100.00;52709.44;5091220;28;19949;-71
2023/05/04 02:33:08;;;;;;;;;;;;;;;-140.72;100.00;52697.28;5092693;28;20305;-71
2023/05/04 02:35:45;;;;;;;;;;;;;;;-140.72;100.00;52697.28;5089221;28;19920;-71
2023/05/04 02:38:10;;;;;;;;;;;;;;;-140.72;100.00;52685.09;5092628;28;19916;-71
2023/05/04 02:40:35;;;;;;;;;;;;;;;-140.72;100.00;52691.19;5094860;28;19926;-71
2023/05/04 02:43:04;;;;;;;;;;;;;;;-140.72;100.00;52709.44;5091320;28;19916;-71
2023/05/04 02:45:29;;;;;;;;;;;;;;;-140.72;100.00;52721.63;5097176;28;20007;-71
2023/05/04 02:47:54;;;;;;;;;;;;;;;-140.72;100.00;52703.34;5094247;28;20019;-71
2023/05/04 02:50:19;;;;;;;;;;;;;;;-140.72;100.00;52697.28;5097272;28;19920;-71
2023/05/04 02:52:45;;;;;;;;;;;;;;;-140.72;100.00;52717.56;5101926;28;19927;-71
2023/05/04 02:55:32;;;;;;;;;;;;;;;-140.72;100.00;52727.72;5091118;28;19941;-71
2023/05/04 02:57:57;;;;;;;;;;;;;;;-140.72;100.00;52723.66;5091050;28;19920;-71
2023/05/04 03:00:22;;;;;;;;;;;;;;;-140.72;100.00;52719.59;5100526;28;19999;-71
2023/05/04 03:02:48;;;;;;;;;;;;;;;-140.72;100.00;52699.31;5097294;28;20366;-71
2023/05/04 03:05:19;;;;;;;;;;;;;;;-140.72;100.00;52697.28;5099811;28;19924;-71
2023/05/04 03:07:45;;;;;;;;;;;;;;;-140.72;100.00;52705.38;5081546;28;20004;-71
2023/05/04 03:10:10;;;;;;;;;;;;;;;-140.72;100.00;52727.72;5092954;28;19940;-71
2023/05/04 03:12:35;;;;;;;;;;;;;;;-140.72;100.00;52715.53;5098871;28;19927;-71
2023/05/04 03:15:01;;;;;;;;;;;;;;;-140.72;100.00;52711.47;5082685;28;20014;-71
2023/05/04 03:17:26;;;;;;;;;;;;;;;-140.72;100.00;52707.41;5089666;28;19916;-71
2023/05/04 03:19:51;;;;;;;;;;;;;;;-140.72;100.00;52699.31;5096272;28;20374;-71
2023/05/04 03:22:16;;;;;;;;;;;;;;;-140.72;100.00;52739.88;5082749;28;19920;-71
2023/05/04 03:24:42;;;;;;;;;;;;;;;-140.72;100.00;52691.19;5094564;28;20090;-71
2023/05/04 03:27:07;;;;;;;;;;;;;;;-140.72;100.00;52717.56;5090114;28;19970;-71
2023/05/04 03:29:33;;;;;;;;;;;;;;;-140.72;100.00;52711.47;5090169;28;19923;-71
2023/05/04 03:31:58;;;;;;;;;;;;;;;-140.72;100.00;52695.25;5091030;28;19960;-71
2023/05/04 03:34:23;;;;;;;;;;;;;;;-140.72;100.00;52715.53;5089766;28;19936;-70
2023/05/04 03:36:48;;;;;;;;;;;;;;;-140.72;100.00;52709.44;5096530;28;19916;-71
2023/05/04 03:39:21;;;;;;;;;;;;;;;-140.72;100.00;52703.34;5092353;28;19916;-70
2023/05/04 03:41:46;;;;;;;;;;;;;;;-140.72;100.00;52745.97;5087523;28;19942;-71
2023/05/04 03:44:11;;;;;;;;;;;;;;;-140.72;100.00;52709.44;5088014;28;19916;-71
2023/05/04 03:46:36;;;;;;;;;;;;;;;-140.72;100.00;52717.56;5096611;28;20350;-71
2023/05/04 03:49:02;;;;;;;;;;;;;;;-140.72;100.00;52752.06;5084488;28;19916;-71
2023/05/04 03:51:27;;;;;;;;;;;;;;;-140.72;100.00;52717.56;5089237;28;20357;-70
2023/05/04 03:53:52;;;;;;;;;;;;;;;-140.72;100.00;52721.63;5093471;28;19920;-70
2023/05/04 03:56:18;;;;;;;;;;;;;;;-140.72;100.00;52752.06;5089906;28;19916;-71
2023/05/04 03:58:43;;;;;;;;;;;;;;;-140.72;100.00;52739.88;5089684;28;20369;-71
2023/05/04 04:01:08;;;;;;;;;;;;;;;-140.72;100.00;52715.53;5088181;28;20932;-71
2023/05/04 04:03:35;;;;;;;;;;;;;;;-140.72;100.00;52725.69;5095000;28;20011;-71
2023/05/04 04:06:02;;;;;;;;;;;;;;;-140.72;100.00;52733.78;5081980;28;19920;-71
2023/05/04 04:08:27;;;;;;;;;;;;;;;-140.72;100.00;52711.47;5093757;28;19920;-71
2023/05/04 04:10:53;;;;;;;;;;;;;;;-140.72;100.00;52739.88;5081260;28;19920;-71
2023/05/04 04:13:18;;;;;;;;;;;;;;;-140.72;100.00;52739.88;5075988;28;19927;-71
2023/05/04 04:15:45;;;;;;;;;;;;;;;-140.72;100.00;52748.00;5085617;28;19931;-71
2023/05/04 04:18:10;;;;;;;;;;;;;;;-140.72;100.00;52748.00;5090867;28;19921;-70
2023/05/04 04:20:35;;;;;;;;;;;;;;;-140.72;100.00;52705.38;5101978;28;19923;-71
2023/05/04 04:23:01;;;;;;;;;;;;;;;-140.72;100.00;52707.41;5090130;28;19920;-71
2023/05/04 04:25:26;;;;;;;;;;;;;;;-140.72;100.00;52739.88;5093669;28;20027;-71
2023/05/04 04:27:57;;;;;;;;;;;;;;;-140.72;100.00;52723.66;5093258;28;19920;-70
2023/05/04 04:30:22;;;;;;;;;;;;;;;-140.72;100.00;52719.59;5085750;28;19924;-70
2023/05/04 04:32:48;;;;;;;;;;;;;;;-140.72;100.00;52756.13;5097654;28;20321;-70
2023/05/04 04:35:13;;;;;;;;;;;;;;;-140.72;100.00;52683.06;5083359;28;19927;-70
2023/05/04 04:37:39;;;;;;;;;;;;;;;-140.72;100.00;52735.81;5083409;28;19921;-71
2023/05/04 04:40:06;;;;;;;;;;;;;;;-140.72;100.00;52709.44;5108664;27;19916;-71
2023/05/04 04:42:35;;;;;;;;;;;;;;;-140.72;100.00;52713.50;5088375;28;19994;-71
2023/05/04 04:45:04;;;;;;;;;;;;;;;-140.72;100.00;52707.41;5092474;28;19920;-71
2023/05/04 04:47:29;;;;;;;;;;;;;;;-140.72;100.00;52707.41;5077958;28;20038;-71
2023/05/04 04:49:54;;;;;;;;;;;;;;;-140.72;100.00;52750.03;5077882;28;19920;-71
2023/05/04 04:52:20;;;;;;;;;;;;;;;-140.72;100.00;52752.06;5090605;28;19923;-71
2023/05/04 04:54:45;;;;;;;;;;;;;;;-140.72;100.00;52727.72;5091961;28;20317;-71
2023/05/04 04:57:10;;;;;;;;;;;;;;;-140.72;100.00;52745.97;5085226;28;19920;-71
2023/05/04 04:59:36;;;;;;;;;;;;;;;-140.72;100.00;52715.53;5088833;28;19923;-72
2023/05/04 05:02:02;;;;;;;;;;;;;;;-140.72;100.00;52713.50;5092781;28;19920;-71
2023/05/04 05:04:28;;;;;;;;;;;;;;;-140.72;100.00;52695.25;5106691;28;19943;-71
2023/05/04 05:06:53;;;;;;;;;;;;;;;-140.72;100.00;52703.34;5092627;28;19920;-71
2023/05/04 05:09:18;;;;;;;;;;;;;;;-140.72;100.00;52717.56;5086518;28;19920;-71
2023/05/04 05:11:44;;;;;;;;;;;;;;;-140.72;100.00;52703.34;5085773;28;19920;-71
2023/05/04 05:14:09;;;;;;;;;;;;;;;-140.72;100.00;52725.69;5087531;28;19916;-71
2023/05/04 05:16:34;;;;;;;;;;;;;;;-140.72;100.00;52715.53;5083713;28;20351;-71
2023/05/04 05:19:00;;;;;;;;;;;;;;;-140.72;100.00;52719.59;5082321;28;19916;-72
2023/05/04 05:21:25;;;;;;;;;;;;;;;-140.72;100.00;52707.41;5093220;28;20003;-71
2023/05/04 05:23:50;;;;;;;;;;;;;;;-140.72;100.00;52705.38;5091568;28;19966;-71
2023/05/04 05:26:16;;;;;;;;;;;;;;;-140.72;100.00;52674.94;5092755;28;19967;-70
2023/05/04 05:28:41;;;;;;;;;;;;;;;-140.72;100.00;52703.34;5084164;28;19959;-71
2023/05/04 05:31:06;;;;;;;;;;;;;;;-140.72;100.00;52699.31;5081471;28;20294;-71
2023/05/04 05:33:32;;;;;;;;;;;;;;;-140.72;100.00;52735.81;5089574;28;19962;-71
2023/05/04 05:35:57;;;;;;;;;;;;;;;-140.72;100.00;52674.94;5086102;28;19943;-71
2023/05/04 05:38:22;;;;;;;;;;;;;;;-140.72;100.00;52723.66;5089260;28;19999;-71
2023/05/04 05:40:48;;;;;;;;;;;;;;;-140.72;100.00;52717.56;5087825;28;19962;-71
2023/05/04 05:43:13;;;;;;;;;;;;;;;-140.72;100.00;52695.25;5095304;28;19920;-71
2023/05/04 05:45:38;;;;;;;;;;;;;;;-140.72;100.00;52685.09;5085260;28;20259;-72
2023/05/04 05:48:04;;;;;;;;;;;;;;;-140.72;100.00;52717.56;5085048;28;19920;-71
2023/05/04 05:50:29;;;;;;;;;;;;;;;-140.72;100.00;52711.47;5093437;28;20014;-73
2023/05/04 05:52:55;;;;;;;;;;;;;;;-140.72;100.00;52683.06;5083377;28;19925;-73
2023/05/04 05:55:20;;;;;;;;;;;;;;;-140.72;100.00;52723.66;5078252;28;19962;-76
2023/05/04 05:57:45;;;;;;;;;;;;;;;-140.72;100.00;52679.00;5082001;28;19920;-73
2023/05/04 06:00:11;;;;;;;;;;;;;;;-140.72;100.00;52695.25;5076947;28;19921;-73
2023/05/04 06:02:36;;;;;;;;;;;;;;;-140.72;100.00;52666.84;5089272;28;19920;-72
2023/05/04 06:05:02;;;;;;;;;;;;;;;-140.72;100.00;52733.78;5084785;28;20259;-72
2023/05/04 06:07:27;;;;;;;;;;;;;;;-140.72;100.00;52707.41;5099277;28;19916;-72
2023/05/04 06:09:52;;;;;;;;;;;;;;;-140.72;100.00;52701.31;5085836;28;20329;-74
2023/05/04 06:12:17;;;;;;;;;;;;;;;-140.72;100.00;52648.56;5082828;28;19917;-73
2023/05/04 06:14:43;;;;;;;;;;;;;;;-140.72;100.00;52709.44;5093208;28;19923;-73
2023/05/04 06:17:08;;;;;;;;;;;;;;;-140.72;100.00;52672.91;5090211;28;19923;-73
2023/05/04 06:19:35;;;;;;;;;;;;;;;-140.72;100.00;52676.97;5091270;28;19920;-72
2023/05/04 06:22:00;;;;;;;;;;;;;;;-140.72;100.00;52679.00;5097189;28;20001;-71
2023/05/04 06:24:25;;;;;;;;;;;;;;;-140.72;100.00;52687.13;5100467;28;19960;-75
2023/05/04 06:26:51;;;;;;;;;;;;;;;-140.72;100.00;52648.56;5096647;28;20373;-73
2023/05/04 06:29:16;;;;;;;;;;;;;;;-140.72;100.00;52668.84;5098249;28;20002;-73
2023/05/04 06:31:41;;;;;;;;;;;;;;;-140.72;100.00;52654.66;5086787;28;19916;-72
2023/05/04 06:34:06;;;;;;;;;;;;;;;-140.72;100.00;52640.44;5087067;28;20006;-72
2023/05/04 06:36:32;;;;;;;;;;;;;;;-140.72;100.00;52630.31;5098734;28;19940;-74
2023/05/04 06:38:57;;;;;;;;;;;;;;;-140.72;100.00;52650.59;5085925;28;19916;-72
2023/05/04 06:41:23;;;;;;;;;;;;;;;-140.72;100.00;52642.47;5102624;28;19952;-75
2023/05/04 06:43:48;;;;;;;;;;;;;;;-140.72;100.00;52616.09;5090496;28;19917;-72
2023/05/04 06:46:13;;;;;;;;;;;;;;;-140.72;100.00;52666.84;5087276;28;19966;-72
2023/05/04 06:48:38;;;;;;;;;;;;;;;-140.72;100.00;52656.69;5094862;27;19968;-73
2023/05/04 06:51:04;;;;;;;;;;;;;;;-140.72;100.00;52640.44;5081369;28;19917;-72
2023/05/04 06:53:29;;;;;;;;;;;;;;;-140.72;100.00;52618.13;5101046;28;19923;-73
2023/05/04 06:55:54;;;;;;;;;;;;;;;-140.72;94.86;52636.38;5107456;28;19935;-74
2023/05/04 06:58:20;;;;;;;;;;;;;;;-140.72;91.77;52597.84;5093707;28;19962;-75
2023/05/04 07:00:46;;;;;;;;;;;;;;;-140.72;89.25;52648.56;5098481;28;20027;-74
2023/05/04 07:03:11;;;;;;;;;;;;;;;-140.72;65.92;52614.06;5080447;28;19920;-74
2023/05/04 07:05:37;;;;;;;;;;;;;;;-140.72;42.33;52622.19;5100110;28;19938;-73
2023/05/04 07:08:02;;;;;;;;;;;;;;;-140.72;14.59;52605.94;5099683;28;19943;-73
2023/05/04 07:10:27;;;;;;;;;;;;;;;-140.72;0.00;52605.94;5099168;28;19961;-73
2023/05/04 07:12:53;;;;;;;;;;;;;;;-140.72;0.00;52601.91;5087996;28;20002;-74
2023/05/04 07:15:18;;;;;;;;;;;;;;;-140.72;0.00;52597.84;5095055;28;19920;-76
2023/05/04 07:17:43;;;;;;;;;;;;;;;-140.72;0.00;52607.97;5090610;28;19920;-74
2023/05/04 07:20:09;;;;;;;;;;;;;;;-140.72;0.00;52601.91;5090611;28;19920;-74
2023/05/04 07:22:34;;;;;;;;;;;;;;;-140.72;0.00;52585.66;5093479;28;19916;-74
2023/05/04 07:24:59;;;;;;;;;;;;;;;-140.72;0.00;52597.84;5108581;28;19927;-74
2023/05/04 07:27:25;;;;;;;;;;;;;;;-140.72;0.00;52591.75;5089969;28;19932;-75
2023/05/04 07:29:50;;;;;;;;;;;;;;;-140.72;0.00;52581.59;5095738;28;20011;-73
2023/05/04 07:32:16;;;;;;;;;;;;;;;-140.72;0.00;52605.94;5083739;28;19916;-73
2023/05/04 07:34:42;;;;;;;;;;;;;;;-140.72;0.00;52589.72;5077332;28;19996;-73
2023/05/04 07:37:07;;;;;;;;;;;;;;;-140.72;0.00;52549.13;5096541;28;20522;-72
2023/05/04 07:39:36;;;;;;;;;;;;;;;-140.72;0.00;52563.34;5080996;28;19916;-72
2023/05/04 07:42:02;;;;;;;;;;;;;;;-140.72;0.00;52545.06;5079553;28;20003;-72
2023/05/04 07:44:28;;;;;;;;;;;;;;;-140.72;0.00;52561.31;5085236;28;19963;-72
2023/05/04 07:46:53;;;;;;;;;;;;;;;-140.72;0.00;52536.97;5096026;28;20382;-72
2023/05/04 07:49:18;;;;;;;;;;;;;;;-140.72;0.00;52597.84;5081383;28;19948;-72
2023/05/04 07:51:43;;;;;;;;;;;;;;;-140.72;0.00;52528.84;5096190;28;19927;-72
2023/05/04 07:54:09;;;;;;;;;;;;;;;-140.72;0.00;52528.84;5089163;28;20387;-72
2023/05/04 07:56:34;;;;;;;;;;;;;;;-140.72;0.00;52577.53;5080619;28;19923;-72
2023/05/04 07:59:00;;;;;;;;;;;;;;;-140.72;0.00;52526.81;5091601;28;20466;-76
2023/05/04 08:01:25;;;;;;;;;;;;;;;-140.72;0.00;52518.69;5086805;28;19928;-72
2023/05/04 08:03:50;;;;;;;;;;;;;;;-140.72;0.00;52534.94;5084702;28;19916;-72
2023/05/04 08:06:15;;;;;;;;;;;;;;;-140.72;0.00;52498.41;5092716;28;20009;-72
2023/05/04 08:08:41;;;;;;;;;;;;;;;-140.72;0.00;52532.91;5094329;28;19951;-72
2023/05/04 08:11:09;;;;;;;;;;;;;;;-140.72;0.00;52522.75;5091972;28;19920;-72
2023/05/04 08:13:34;;;;;;;;;;;;;;;-140.72;0.00;52524.78;5088719;28;20336;-73
2023/05/04 08:16:00;;;;;;;;;;;;;;;-140.72;0.00;52500.44;5090456;28;19929;-73
2023/05/04 08:18:36;;;;;;;;;;;;;;;-140.72;0.00;52498.41;5087543;28;19973;-76
2023/05/04 08:21:02;;;;;;;;;;;;;;;-140.72;0.00;52545.06;5106001;28;20281;-72
2023/05/04 08:23:42;;;;;;;;;;;;;;;-140.72;0.00;52492.31;5090075;28;19920;-72
2023/05/04 08:26:07;;;;;;;;;;;;;;;-140.72;0.00;52447.69;5085784;28;20352;-75
2023/05/04 08:28:35;;;;;;;;;;;;;;;-140.72;0.00;52486.22;5088893;28;19920;-73
2023/05/04 08:31:01;;;;;;;;;;;;;;;-140.72;0.00;52494.34;5084751;28;20289;-73
2023/05/04 08:33:27;;;;;;;;;;;;;;;-140.72;0.00;52457.81;5091301;28;19975;-73
2023/05/04 08:35:52;;;;;;;;;;;;;;;-140.72;0.00;52488.25;5088978;28;20267;-72
2023/05/04 08:38:17;;;;;;;;;;;;;;;-140.72;0.00;52496.38;5092895;28;20427;-72
2023/05/04 08:40:43;;;;;;;;;;;;;;;-140.72;0.00;52453.75;5087912;28;20010;-72
2023/05/04 08:43:08;;;;;;;;;;;;;;;-140.72;0.00;52457.81;5081411;28;19916;-73
2023/05/04 08:45:36;;;;;;;;;;;;;;;-140.72;0.00;52459.84;5094234;28;19999;-72
2023/05/04 08:48:02;;;;;;;;;;;;;;;-140.72;0.00;52398.97;5081117;28;19916;-72
2023/05/04 08:50:27;;;;;;;;;;;;;;;-140.72;0.00;52425.34;5081094;28;19975;-71
2023/05/04 08:52:53;;;;;;;;;;;;;;;-140.72;0.00;52362.44;5075157;28;19917;-71
2023/05/04 08:55:18;;;;;;;;;;;;;;;-140.72;0.00;52411.16;5076412;28;20333;-72
2023/05/04 08:57:44;;;;;;;;;;;;;;;-140.72;0.00;52388.84;5086197;28;19964;-73
2023/05/04 09:00:15;;;;;;;;;;;;;;;-140.72;0.00;52372.59;5098997;28;19919;-71
2023/05/04 09:02:40;;;;;;;;;;;;;;;-140.72;0.00;52360.44;5098672;28;19921;-72
2023/05/04 09:05:07;;;;;;;;;;;;;;;-140.72;0.00;52372.59;5080396;28;19927;-74
2023/05/04 09:07:32;;;;;;;;;;;;;;;-140.72;0.00;52301.59;5088189;28;19977;-71
2023/05/04 09:09:57;;;;;;;;;;;;;;;-140.72;0.00;52321.88;5086991;28;19919;-71
2023/05/04 09:12:25;;;;;;;;;;;;;;;-140.72;0.00;52313.75;5090163;28;19916;-71
2023/05/04 09:14:50;;;;;;;;;;;;;;;-140.72;0.00;52311.72;5087160;28;19921;-72
2023/05/04 09:17:16;;;;;;;;;;;;;;;-140.72;0.00;52258.97;5094929;28;19920;-71
2023/05/04 09:19:44;;;;;;;;;;;;;;;-140.72;0.00;52212.31;5094035;28;19920;-73
2023/05/04 09:22:14;;;;;;;;;;;;;;;-140.72;0.00;52192.00;5081080;28;20427;-72
2023/05/04 09:24:39;;;;;;;;;;;;;;;-140.72;0.00;52183.91;5088650;28;19921;-72
2023/05/04 09:27:08;;;;;;;;;;;;;;;-140.72;0.00;52234.63;5074341;28;20045;-72
2023/05/04 09:29:38;;;;;;;;;;;;;;;-140.72;0.00;52244.78;5083289;28;19965;-72
2023/05/04 09:32:03;;;;;;;;;;;;;;;-140.72;0.00;52171.72;5088822;28;19960;-75
2023/05/04 09:34:28;;;;;;;;;;;;;;;-140.72;0.00;52114.91;5092782;28;19949;-73
2023/05/04 09:37:00;;;;;;;;;;;;;;;-140.72;0.00;52179.84;5088968;28;19964;-73
2023/05/04 09:39:26;;;;;;;;;;;;;;;-140.72;0.00;52185.94;5095703;28;19962;-74
2023/05/04 09:41:51;;;;;;;;;;;;;;;-140.72;0.00;52204.19;5092851;28;19920;-74
2023/05/04 09:44:20;;;;;;;;;;;;;;;-140.72;0.00;52155.50;5087397;28;20366;-73
2023/05/04 09:46:55;;;;;;;;;;;;;;;-140.72;0.00;52171.72;5085844;28;20156;-73
2023/05/04 09:49:31;;;;;;;;;;;;;;;-140.72;0.00;52121.00;5091639;28;19920;-73
2023/05/04 09:51:57;;;;;;;;;;;;;;;-140.72;0.00;52151.44;5086229;28;20320;-72
2023/05/04 09:54:22;;;;;;;;;;;;;;;-140.72;0.00;52133.16;5084111;28;19955;-71
2023/05/04 09:56:51;;;;;;;;;;;;;;;-140.72;0.00;52110.84;5079803;28;19923;-73
2023/05/04 09:59:16;;;;;;;;;;;;;;;-140.72;0.00;52084.47;5092369;28;19920;-73
2023/05/04 10:01:42;;;;;;;;;;;;;;;-140.72;0.00;52054.03;5095734;28;19945;-73
2023/05/04 10:04:07;;;;;;;;;;;;;;;-140.72;0.00;52092.59;5081304;28;20021;-73
2023/05/04 10:06:33;;;;;;;;;;;;;;;-140.72;0.00;52070.28;5093628;28;20321;-73
2023/05/04 10:08:59;;;;;;;;;;;;;;;-140.72;0.00;52029.69;5101662;28;20012;-73
2023/05/04 10:11:25;;;;;;;;;;;;;;;-140.72;0.00;52025.63;5081779;28;19917;-73
2023/05/04 10:13:50;;;;;;;;;;;;;;;-140.72;0.00;52013.47;5079955;28;19917;-74
2023/05/04 10:16:23;;;;;;;;;;;;;;;-140.72;0.00;52025.63;5083902;28;20275;-73
2023/05/04 10:18:51;;;;;;;;;;;;;;;-140.72;0.00;51995.19;5094348;28;19923;-71
2023/05/04 10:21:28;;;;;;;;;;;;;;;-140.72;0.00;52013.47;5082092;28;19955;-73
2023/05/04 10:24:11;;;;;;;;;;;;;;;-140.72;0.00;52037.81;5094044;28;19916;-73
2023/05/04 10:26:53;;;;;;;;;;;;;;;-140.72;0.00;51958.69;5084437;28;19923;-74
2023/05/04 10:29:27;;;;;;;;;;;;;;;-140.72;0.00;51964.78;5079602;28;19917;-74
2023/05/04 10:31:53;;;;;;;;;;;;;;;-140.72;0.00;51940.41;5076135;28;20353;-74
2023/05/04 10:34:25;;;;;;;;;;;;;;;-140.72;0.00;51924.19;5084396;28;19963;-73
2023/05/04 10:36:51;;;;;;;;;;;;;;;-140.72;0.00;51944.47;5093496;28;19965;-73
2023/05/04 10:39:17;;;;;;;;;;;;;;;-140.72;0.00;51942.44;5088032;28;19924;-73
2023/05/04 10:42:16;;;;;;;;;;;;;;;-140.72;0.00;51964.78;5089374;28;19920;-72
2023/05/04 10:45:08;;;;;;;;;;;;;;;-140.72;0.00;51944.47;5083685;28;19920;-74
2023/05/04 10:47:34;;;;;;;;;;;;;;;-140.72;0.00;51865.34;5086405;28;20302;-74
2023/05/04 10:50:22;;;;;;;;;;;;;;;-140.72;0.00;51907.97;5087962;28;19920;-74
2023/05/04 10:52:52;;;;;;;;;;;;;;;-140.72;0.00;51891.72;5114596;27;19920;-73
2023/05/04 10:55:18;;;;;;;;;;;;;;;-140.72;0.00;51865.34;5092012;28;20015;-73
2023/05/04 10:57:49;;;;;;;;;;;;;;;-140.72;0.00;51916.06;5086757;28;19963;-73
2023/05/04 11:00:15;;;;;;;;;;;;;;;-140.72;0.00;51883.63;5087025;28;19931;-73
2023/05/04 11:02:40;;;;;;;;;;;;;;;-140.72;0.00;51914.03;5092273;28;20378;-74
2023/05/04 11:05:06;;;;;;;;;;;;;;;-140.72;0.00;51867.38;5091351;28;19919;-73
2023/05/04 11:07:36;;;;;;;;;;;;;;;-140.72;0.00;51889.69;5094647;28;19920;-73
2023/05/04 11:10:02;;;;;;;;;;;;;;;-140.72;0.00;51867.38;5093284;28;19971;-74
2023/05/04 11:12:27;;;;;;;;;;;;;;;-140.72;0.00;51830.88;5089024;28;19928;-74
2023/05/04 11:15:02;;;;;;;;;;;;;;;-140.72;0.00;51770.00;5091978;28;19928;-73
2023/05/04 11:17:28;;;;;;;;;;;;;;;-140.72;0.00;51774.06;5091601;28;19920;-73
2023/05/04 11:19:53;;;;;;;;;;;;;;;-140.72;0.00;51879.56;5092630;28;19927;-74
2023/05/04 11:22:19;;;;;;;;;;;;;;;-140.72;0.00;51834.91;5092687;28;19932;-73
2023/05/04 11:24:45;;;;;;;;;;;;;;;-140.72;0.00;51828.84;5090812;28;19967;-73
2023/05/04 11:27:21;;;;;;;;;;;;;;;-140.72;0.00;51867.38;5094723;28;19920;-73
2023/05/04 11:29:54;;;;;;;;;;;;;;;-140.72;0.00;51826.81;5092730;28;20335;-73
2023/05/04 11:32:19;;;;;;;;;;;;;;;-140.72;0.00;51855.22;5091274;28;19948;-73
2023/05/04 11:34:45;;;;;;;;;;;;;;;-140.72;0.00;51770.00;5094238;28;19962;-73
2023/05/04 11:37:11;;;;;;;;;;;;;;;-140.72;0.00;51770.00;5088022;28;19924;-73
2023/05/04 11:39:37;;;;;;;;;;;;;;;-140.72;0.00;51741.59;5089799;28;20281;-74
2023/05/04 11:42:04;;;;;;;;;;;;;;;-140.72;0.00;51767.97;5086872;28;20400;-74
2023/05/04 11:44:30;;;;;;;;;;;;;;;-140.72;0.00;51737.53;5093688;28;19923;-74
2023/05/04 11:46:55;;;;;;;;;;;;;;;-140.72;0.00;51770.00;5089986;28;19934;-73
2023/05/04 11:49:21;;;;;;;;;;;;;;;-140.72;0.00;51749.72;5104252;27;19931;-75
2023/05/04 11:51:47;;;;;;;;;;;;;;;-140.72;0.00;51727.41;5091292;28;19919;-73
2023/05/04 11:54:20;;;;;;;;;;;;;;;-140.72;0.00;51778.13;5095579;28;19942;-75
2023/05/04 11:56:45;;;;;;;;;;;;;;;-140.72;0.00;51778.13;5092326;28;19927;-76
2023/05/04 11:59:10;;;;;;;;;;;;;;;-140.72;0.00;51729.44;5093021;28;19927;-73
2023/05/04 12:01:36;;;;;;;;;;;;;;;-140.72;0.00;51694.94;5093393;28;19923;-73
2023/05/04 12:04:01;;;;;;;;;;;;;;;-140.72;0.00;51721.31;5096130;28;20362;-72
2023/05/04 12:06:30;;;;;;;;;;;;;;;-140.72;0.00;51690.88;5096367;28;19974;-73
2023/05/04 12:09:00;;;;;;;;;;;;;;;-140.72;0.00;51680.72;5093027;28;19920;-72
2023/05/04 12:11:26;;;;;;;;;;;;;;;-140.72;0.00;51688.84;5094165;27;19928;-73
2023/05/04 12:14:01;;;;;;;;;;;;;;;-140.72;0.00;51680.72;5088798;28;19928;-73
2023/05/04 12:16:27;;;;;;;;;;;;;;;-140.72;0.00;51652.34;5089690;28;20302;-71
2023/05/04 12:19:00;;;;;;;;;;;;;;;-140.72;0.00;51688.84;5090740;28;19920;-73
2023/05/04 12:21:26;;;;;;;;;;;;;;;-140.72;0.00;51678.72;5090355;28;19985;-74
2023/05/04 12:23:51;;;;;;;;;;;;;;;-140.72;0.00;51713.19;5090666;28;20366;-74